createdAt,value
2018-02-09T00:00:40.156Z,13.17
2018-02-09T00:03:08.480Z,12.07
2018-02-09T00:05:36.777Z,12.87
2018-02-09T00:08:04.353Z,12.92
2018-02-09T00:10:32.648Z,13.40
2018-02-09T00:13:00.965Z,12.57
2018-02-09T00:15:29.260Z,13.28
2018-02-09T00:17:57.579Z,11.97
2018-02-09T00:20:25.871Z,13.13
2018-02-09T00:22:54.187Z,13.42
2018-02-09T00:25:21.712Z,13.27
2018-02-09T00:27:50.034Z,14.10
2018-02-09T00:30:18.328Z,14.05
2018-02-09T00:32:46.642Z,13.80
2018-02-09T00:35:14.932Z,12.78
2018-02-09T00:37:43.242Z,13.12
2018-02-09T00:40:11.530Z,13.85
2018-02-09T00:42:39.839Z,13.80
2018-02-09T00:45:08.129Z,13.80
2018-02-09T00:47:36.435Z,13.90
2018-02-09T00:50:04.724Z,14.50
2018-02-09T00:52:33.043Z,14.02
2018-02-09T00:55:01.335Z,15.73
2018-02-09T00:57:29.643Z,15.33
2018-02-09T00:59:57.931Z,14.02
2018-02-09T01:02:26.240Z,14.10
2018-02-09T01:04:54.532Z,13.07
2018-02-09T01:07:22.844Z,15.07
2018-02-09T01:09:51.148Z,13.08
2018-02-09T01:12:19.439Z,12.62
2018-02-09T01:14:48.264Z,11.87
2018-02-09T01:17:16.552Z,13.52
2018-02-09T01:19:44.873Z,12.05
2018-02-09T01:22:13.164Z,13.27
2018-02-09T01:24:41.477Z,14.73
2018-02-09T01:27:09.764Z,13.08
2018-02-09T01:29:38.072Z,14.10
2018-02-09T01:32:06.365Z,13.80
2018-02-09T01:34:34.675Z,13.75
2018-02-09T01:37:02.963Z,13.43
2018-02-09T01:39:31.276Z,14.72
2018-02-09T01:41:59.564Z,14.37
2018-02-09T01:44:27.875Z,14.00
2018-02-09T01:46:56.168Z,15.22
2018-02-09T01:49:24.480Z,15.08
2018-02-09T01:51:52.767Z,14.38
2018-02-09T01:54:21.080Z,14.40
2018-02-09T01:56:49.372Z,13.32
2018-02-09T01:59:16.920Z,14.03
2018-02-09T02:01:45.212Z,11.72
2018-02-09T02:04:12.755Z,13.40
2018-02-09T02:06:41.048Z,14.00
2018-02-09T02:09:09.367Z,15.33
2018-02-09T02:11:37.664Z,13.30
2018-02-09T02:14:05.974Z,13.32
2018-02-09T02:16:34.264Z,14.12
2018-02-09T02:19:02.579Z,15.48
2018-02-09T02:21:30.873Z,12.52
2018-02-09T02:23:59.187Z,12.57
2018-02-09T02:26:27.479Z,13.10
2018-02-09T02:28:55.796Z,13.98
2018-02-09T02:31:24.101Z,13.75
2018-02-09T02:33:52.415Z,13.52
2018-02-09T02:36:20.704Z,14.25
2018-02-09T02:38:49.021Z,13.37
2018-02-09T02:41:17.332Z,13.80
2018-02-09T02:43:45.652Z,15.47
2018-02-09T02:46:13.946Z,14.87
2018-02-09T02:48:42.262Z,14.68
2018-02-09T02:51:10.556Z,14.03
2018-02-09T02:53:38.912Z,14.65
2018-02-09T02:56:07.204Z,13.90
2018-02-09T02:58:35.500Z,13.07
2018-02-09T03:01:03.815Z,16.08
2018-02-09T03:03:32.107Z,15.15
2018-02-09T03:06:00.425Z,13.53
2018-02-09T03:08:28.711Z,12.85
2018-02-09T03:10:57.022Z,13.13
2018-02-09T03:13:25.312Z,13.15
2018-02-09T03:15:53.631Z,15.12
2018-02-09T03:18:21.920Z,15.03
2018-02-09T03:20:50.227Z,12.58
2018-02-09T03:23:18.515Z,12.70
2018-02-09T03:25:46.828Z,14.00
2018-02-09T03:28:15.115Z,14.13
2018-02-09T03:30:43.426Z,14.80
2018-02-09T03:33:11.715Z,14.48
2018-02-09T03:35:40.025Z,14.40
2018-02-09T03:38:08.316Z,14.72
2018-02-09T03:40:36.643Z,16.10
2018-02-09T03:43:04.939Z,16.40
2018-02-09T03:45:33.247Z,14.62
2018-02-09T03:48:01.543Z,15.22
2018-02-09T03:50:29.857Z,13.55
2018-02-09T03:52:58.152Z,13.05
2018-02-09T03:55:25.695Z,16.63
2018-02-09T03:57:53.987Z,14.23
2018-02-09T04:00:22.304Z,13.92
2018-02-09T04:02:50.601Z,14.48
2018-02-09T04:05:18.912Z,13.58
2018-02-09T04:07:47.211Z,16.33
2018-02-09T04:10:15.533Z,14.28
2018-02-09T04:12:43.829Z,14.33
2018-02-09T04:15:12.148Z,14.35
2018-02-09T04:17:40.440Z,14.45
2018-02-09T04:20:08.755Z,12.82
2018-02-09T04:22:37.289Z,14.48
2018-02-09T04:25:05.599Z,15.68
2018-02-09T04:27:33.892Z,15.42
2018-02-09T04:30:02.199Z,13.98
2018-02-09T04:32:30.487Z,13.88
2018-02-09T04:34:58.801Z,14.72
2018-02-09T04:37:27.119Z,13.67
2018-02-09T04:39:55.416Z,15.08
2018-02-09T04:42:23.740Z,15.00
2018-02-09T04:44:52.032Z,14.55
2018-02-09T04:47:20.343Z,14.45
2018-02-09T04:49:48.681Z,13.38
2018-02-09T04:52:16.972Z,13.28
2018-02-09T04:54:45.267Z,14.10
2018-02-09T04:57:13.578Z,14.28
2018-02-09T04:59:41.876Z,14.47
2018-02-09T05:02:10.192Z,14.82
2018-02-09T05:04:38.479Z,14.22
2018-02-09T05:07:06.796Z,14.72
2018-02-09T05:09:35.083Z,13.25
2018-02-09T05:12:03.396Z,13.30
2018-02-09T05:14:31.688Z,13.82
2018-02-09T05:17:00.000Z,15.78
2018-02-09T05:19:28.292Z,15.82
2018-02-09T05:21:56.600Z,13.15
2018-02-09T05:24:24.887Z,14.05
2018-02-09T05:26:53.202Z,14.00
2018-02-09T05:29:21.492Z,15.03
2018-02-09T05:31:49.812Z,14.10
2018-02-09T05:34:18.099Z,14.85
2018-02-09T05:36:46.416Z,15.63
2018-02-09T05:39:14.709Z,15.82
2018-02-09T05:41:43.020Z,15.12
2018-02-09T05:44:11.307Z,17.57
2018-02-09T05:46:39.615Z,16.43
2018-02-09T05:49:07.907Z,19.70
2018-02-09T05:51:36.228Z,17.17
2018-02-09T05:54:04.520Z,17.57
2018-02-09T05:56:32.832Z,19.27
2018-02-09T05:59:01.123Z,16.65
2018-02-09T06:01:29.432Z,17.53
2018-02-09T06:03:57.720Z,19.08
2018-02-09T06:06:26.036Z,17.27
2018-02-09T06:08:54.327Z,17.97
2018-02-09T06:11:22.639Z,19.78
2018-02-09T06:13:50.928Z,23.67
2018-02-09T06:16:19.244Z,21.68
2018-02-09T06:18:47.540Z,19.55
2018-02-09T06:21:15.833Z,17.78
2018-02-09T06:23:44.153Z,20.65
2018-02-09T06:26:12.460Z,20.15
2018-02-09T06:28:40.780Z,21.58
2018-02-09T06:31:09.084Z,19.27
2018-02-09T06:33:37.400Z,19.77
2018-02-09T06:36:05.687Z,23.35
2018-02-09T06:38:33.994Z,21.47
2018-02-09T06:41:02.288Z,24.92
2018-02-09T06:43:30.607Z,33.22
2018-02-09T06:45:58.904Z,30.00
2018-02-09T06:48:28.199Z,42.88
2018-02-09T06:50:56.496Z,36.78
2018-02-09T06:53:24.821Z,38.82
2018-02-09T06:55:53.118Z,37.83
2018-02-09T06:58:21.440Z,38.53
2018-02-09T07:00:49.732Z,38.63
2018-02-09T07:03:18.044Z,27.72
2018-02-09T07:05:46.338Z,38.25
2018-02-09T07:08:14.645Z,36.97
2018-02-09T07:10:42.935Z,40.17
2018-02-09T07:13:11.279Z,39.48
2018-02-09T07:15:39.576Z,36.35
2018-02-09T07:18:07.896Z,36.55
2018-02-09T07:20:36.233Z,64.25
2018-02-09T07:23:04.527Z,47.73
2018-02-09T07:25:32.824Z,45.95
2018-02-09T07:28:01.144Z,45.85
2018-02-09T07:30:29.437Z,39.37
2018-02-09T07:32:57.762Z,35.08
2018-02-09T07:35:26.056Z,31.23
2018-02-09T07:37:54.371Z,34.73
2018-02-09T07:40:22.661Z,35.45
2018-02-09T07:42:50.976Z,35.85
2018-02-09T07:45:19.280Z,37.77
2018-02-09T07:47:47.596Z,40.95
2018-02-09T07:50:15.895Z,62.42
2018-02-09T07:52:44.204Z,36.52
2018-02-09T07:55:12.507Z,76.58
2018-02-09T07:57:40.822Z,34.25
2018-02-09T08:00:09.116Z,39.15
2018-02-09T08:02:37.416Z,44.07
2018-02-09T08:05:04.964Z,34.48
2018-02-09T08:07:33.253Z,32.53
2018-02-09T08:10:01.576Z,39.18
2018-02-09T08:12:29.868Z,35.43
2018-02-09T08:14:58.188Z,33.68
2018-02-09T08:17:26.487Z,32.95
2018-02-09T08:19:54.836Z,31.70
2018-02-09T08:22:23.138Z,39.72
2018-02-09T08:24:51.452Z,36.48
2018-02-09T08:27:19.740Z,34.18
2018-02-09T08:29:48.052Z,34.47
2018-02-09T08:32:16.351Z,70.55
2018-02-09T08:34:44.668Z,40.22
2018-02-09T08:37:12.958Z,32.72
2018-02-09T08:39:41.280Z,37.95
2018-02-09T08:42:09.567Z,32.25
2018-02-09T08:44:37.880Z,33.53
2018-02-09T08:47:06.168Z,31.23
2018-02-09T08:49:34.483Z,29.98
2018-02-09T08:52:02.781Z,33.57
2018-02-09T08:54:31.095Z,30.63
2018-02-09T08:56:59.383Z,34.38
2018-02-09T08:59:27.696Z,33.62
2018-02-09T09:01:55.988Z,32.18
2018-02-09T09:04:24.307Z,27.68
2018-02-09T09:06:52.596Z,32.73
2018-02-09T09:09:20.907Z,27.78
2018-02-09T09:11:49.196Z,28.72
2018-02-09T09:14:17.507Z,24.70
2018-02-09T09:16:45.796Z,29.67
2018-02-09T09:19:14.116Z,24.60
2018-02-09T09:21:41.644Z,27.83
2018-02-09T09:24:09.960Z,28.57
2018-02-09T09:26:38.262Z,27.53
2018-02-09T09:29:06.576Z,28.90
2018-02-09T09:31:34.859Z,28.12
2018-02-09T09:34:03.172Z,30.82
2018-02-09T09:36:30.697Z,28.12
2018-02-09T09:38:59.011Z,27.95
2018-02-09T09:41:27.304Z,27.42
2018-02-09T09:43:55.596Z,28.23
2018-02-09T09:46:23.929Z,30.05
2018-02-09T09:48:52.231Z,29.47
2018-02-09T09:51:20.548Z,33.57
2018-02-09T09:53:48.843Z,28.92
2018-02-09T09:56:17.155Z,27.77
2018-02-09T09:58:45.448Z,28.15
2018-02-09T10:01:19.406Z,28.23
2018-02-09T10:03:47.704Z,30.65
2018-02-09T10:06:16.020Z,26.92
2018-02-09T10:08:44.307Z,29.12
2018-02-09T10:11:12.623Z,33.08
2018-02-09T10:13:40.916Z,44.58
2018-02-09T10:16:09.236Z,28.42
2018-02-09T10:18:37.523Z,31.93
2018-02-09T10:21:05.843Z,30.62
2018-02-09T10:23:34.135Z,29.15
2018-02-09T10:26:02.462Z,25.12
2018-02-09T10:28:30.756Z,25.87
2018-02-09T10:30:58.328Z,29.83
2018-02-09T10:33:26.624Z,26.97
2018-02-09T10:35:54.950Z,29.15
2018-02-09T10:38:23.248Z,26.40
2018-02-09T10:40:51.588Z,29.98
2018-02-09T10:43:19.882Z,30.32
2018-02-09T10:45:47.431Z,29.42
2018-02-09T10:48:15.729Z,30.35
2018-02-09T10:50:44.040Z,28.47
2018-02-09T10:53:12.330Z,19.58
2018-02-09T10:55:40.644Z,32.32
2018-02-09T10:58:08.952Z,30.80
2018-02-09T11:00:42.808Z,24.68
2018-02-09T11:03:11.100Z,29.15
2018-02-09T11:05:39.411Z,27.20
2018-02-09T11:08:07.704Z,31.63
2018-02-09T11:10:36.020Z,33.38
2018-02-09T11:13:20.976Z,32.83
2018-02-09T11:15:49.295Z,32.13
2018-02-09T11:18:17.583Z,30.15
2018-02-09T11:20:45.891Z,29.35
2018-02-09T11:23:14.236Z,31.55
2018-02-09T11:25:42.543Z,32.95
2018-02-09T11:28:10.838Z,32.18
2018-02-09T11:30:39.140Z,33.70
2018-02-09T11:33:07.430Z,30.45
2018-02-09T11:35:35.735Z,33.50
2018-02-09T11:38:04.028Z,31.75
2018-02-09T11:40:32.375Z,31.48
2018-02-09T11:43:00.664Z,40.85
2018-02-09T11:45:28.955Z,29.82
2018-02-09T11:47:56.504Z,29.57
2018-02-09T11:50:24.791Z,29.33
2018-02-09T11:52:53.099Z,24.88
2018-02-09T11:55:21.402Z,27.23
2018-02-09T11:57:49.736Z,24.80
2018-02-09T12:00:18.036Z,25.90
2018-02-09T12:02:46.348Z,22.70
2018-02-09T12:05:14.635Z,18.77
2018-02-09T12:07:42.948Z,21.45
2018-02-09T12:10:11.240Z,21.45
2018-02-09T12:12:39.548Z,21.68
2018-02-09T12:15:07.841Z,21.92
2018-02-09T12:17:36.192Z,21.43
2018-02-09T12:20:04.463Z,23.10
2018-02-09T12:22:32.771Z,20.87
2018-02-09T12:25:01.059Z,23.10
2018-02-09T12:27:29.368Z,19.67
2018-02-09T12:29:57.656Z,21.27
2018-02-09T12:32:25.964Z,18.20
2018-02-09T12:34:54.248Z,17.45
2018-02-09T12:37:22.589Z,17.78
2018-02-09T12:39:50.883Z,27.55
2018-02-09T12:42:19.196Z,16.72
2018-02-09T12:44:47.485Z,17.43
2018-02-09T12:47:15.792Z,15.15
2018-02-09T12:49:44.087Z,17.87
2018-02-09T12:52:12.400Z,16.32
2018-02-09T12:54:40.687Z,15.28
2018-02-09T12:57:08.992Z,15.48
2018-02-09T12:59:37.284Z,16.40
2018-02-09T13:02:04.840Z,18.52
2018-02-09T13:04:33.128Z,17.83
2018-02-09T13:07:01.439Z,14.27
2018-02-09T13:09:29.737Z,15.98
2018-02-09T13:11:58.048Z,16.13
2018-02-09T13:14:38.137Z,14.18
2018-02-09T13:17:06.444Z,15.87
2018-02-09T13:19:34.731Z,17.18
2018-02-09T13:22:03.036Z,27.12
2018-02-09T13:24:31.324Z,16.12
2018-02-09T13:26:59.636Z,39.88
2018-02-09T13:29:27.924Z,14.52
2018-02-09T13:31:56.232Z,12.93
2018-02-09T13:34:24.540Z,13.70
2018-02-09T13:50:13.520Z,21.30
2018-02-09T13:52:41.874Z,46.55
2018-02-09T13:55:10.163Z,30.30
2018-02-09T13:57:38.452Z,18.57
2018-02-09T14:00:06.755Z,14.90
2018-02-09T14:02:35.048Z,15.68
2018-02-09T14:05:03.363Z,14.63
2018-02-09T14:07:31.647Z,14.83
2018-02-09T14:09:59.956Z,15.42
2018-02-09T14:12:28.245Z,14.22
2018-02-09T14:14:56.559Z,13.27
2018-02-09T14:17:24.840Z,14.83
2018-02-09T14:19:53.152Z,14.05
2018-02-09T14:22:21.448Z,13.13
2018-02-09T14:24:49.760Z,15.98
2018-02-09T14:27:18.055Z,15.37
2018-02-09T14:29:46.364Z,14.23
2018-02-09T14:32:14.648Z,19.02
2018-02-09T14:34:42.972Z,15.63
2018-02-09T14:37:11.271Z,15.02
2018-02-09T14:39:39.588Z,17.83
2018-02-09T14:42:07.879Z,14.43
2018-02-09T14:44:36.185Z,14.68
2018-02-09T14:47:04.472Z,13.03
2018-02-09T14:49:32.783Z,23.43
2018-02-09T14:52:01.067Z,26.42
2018-02-09T14:54:29.380Z,24.62
2018-02-09T14:56:57.671Z,19.63
2018-02-09T14:59:25.980Z,17.20
2018-02-09T15:01:54.267Z,13.75
2018-02-09T15:04:22.587Z,16.68
2018-02-09T15:06:50.868Z,16.77
2018-02-09T15:09:19.175Z,17.90
2018-02-09T15:11:47.467Z,29.82
2018-02-09T15:14:15.783Z,20.78
2018-02-09T15:16:44.067Z,14.20
2018-02-09T15:19:12.384Z,13.67
2018-02-09T15:21:40.697Z,13.78
2018-02-09T15:24:09.009Z,15.55
2018-02-09T15:26:37.308Z,13.38
2018-02-09T15:29:05.615Z,14.60
2018-02-09T15:31:33.900Z,14.27
2018-02-09T15:34:02.216Z,13.27
2018-02-09T15:36:30.509Z,15.80
2018-02-09T15:38:58.804Z,15.37
2018-02-09T15:41:27.128Z,14.27
2018-02-09T15:43:55.412Z,13.73
2018-02-09T15:46:23.720Z,15.53
2018-02-09T15:48:52.963Z,14.93
2018-02-09T15:51:21.277Z,12.98
2018-02-09T15:53:49.569Z,21.33
2018-02-09T15:56:17.888Z,14.47
2018-02-09T15:58:47.143Z,15.80
2018-02-09T16:01:15.456Z,13.33
2018-02-09T16:03:43.752Z,12.78
2018-02-09T16:06:12.056Z,12.50
2018-02-09T16:08:40.339Z,11.78
2018-02-09T16:11:08.646Z,13.22
2018-02-09T16:13:36.935Z,13.58
2018-02-09T16:16:05.244Z,12.23
2018-02-09T16:18:33.553Z,12.33
2018-02-09T16:21:01.863Z,15.57
2018-02-09T16:23:30.161Z,12.82
2018-02-09T16:25:58.468Z,12.23
2018-02-09T16:28:26.753Z,11.83
2018-02-09T16:30:55.061Z,12.27
2018-02-09T16:33:23.347Z,11.28
2018-02-09T16:35:51.656Z,10.98
2018-02-09T16:38:19.944Z,16.35
2018-02-09T16:40:48.255Z,11.18
2018-02-09T16:43:16.545Z,11.35
2018-02-09T16:45:44.860Z,15.25
2018-02-09T16:48:13.146Z,10.77
2018-02-09T16:50:41.453Z,12.20
2018-02-09T16:53:09.740Z,13.98
2018-02-09T16:55:38.049Z,12.57
2018-02-09T16:58:06.336Z,13.82
2018-02-09T17:00:34.644Z,12.62
2018-02-09T17:03:02.932Z,14.67
2018-02-09T17:05:31.240Z,12.37
2018-02-09T17:07:59.532Z,13.45
2018-02-09T17:10:27.840Z,15.45
2018-02-09T17:12:56.123Z,16.07
2018-02-09T17:15:24.432Z,13.98
2018-02-09T17:17:51.959Z,14.82
2018-02-09T17:20:20.248Z,14.55
2018-02-09T17:22:48.576Z,15.73
2018-02-09T17:25:16.859Z,14.65
2018-02-09T17:27:45.179Z,15.03
2018-02-09T17:30:13.464Z,15.85
2018-02-09T17:32:41.776Z,17.00
2018-02-09T17:35:10.064Z,26.77
2018-02-09T17:37:38.373Z,17.73
2018-02-09T17:40:06.663Z,20.60
2018-02-09T17:42:34.221Z,16.83
2018-02-09T17:45:02.516Z,12.95
2018-02-09T17:47:30.844Z,20.28
2018-02-09T17:49:59.141Z,15.62
2018-02-09T17:52:27.448Z,16.97
2018-02-09T17:54:55.738Z,15.10
2018-02-09T17:57:24.073Z,16.77
2018-02-09T17:59:52.363Z,15.45
2018-02-09T18:02:20.677Z,35.80
2018-02-09T18:04:48.963Z,20.37
2018-02-09T18:07:17.268Z,14.38
2018-02-09T18:09:45.556Z,16.40
2018-02-09T18:12:13.888Z,15.25
2018-02-09T18:14:42.177Z,14.18
2018-02-09T18:17:10.510Z,15.33
2018-02-09T18:19:38.888Z,21.55
2018-02-09T18:22:07.216Z,18.67
2018-02-09T18:24:34.763Z,17.17
2018-02-09T18:27:03.091Z,16.07
2018-02-09T18:29:31.424Z,13.75
2018-02-09T18:31:59.731Z,15.43
2018-02-09T18:34:28.024Z,16.87
2018-02-09T18:36:56.332Z,15.05
2018-02-09T18:39:24.627Z,19.10
2018-02-09T18:41:52.951Z,13.08
2018-02-09T18:44:21.237Z,16.55
2018-02-09T18:46:49.567Z,18.85
2018-02-09T18:49:17.859Z,15.98
2018-02-09T18:51:46.172Z,14.98
2018-02-09T18:54:14.484Z,12.92
2018-02-09T18:56:42.772Z,14.63
2018-02-09T18:59:11.084Z,16.12
2018-02-09T19:01:39.369Z,15.30
2018-02-09T19:04:07.683Z,15.62
2018-02-09T19:06:35.969Z,16.30
2018-02-09T19:09:04.279Z,15.93
2018-02-09T19:11:32.585Z,16.95
2018-02-09T19:14:00.895Z,12.12
2018-02-09T19:16:29.179Z,15.52
2018-02-09T19:18:57.487Z,15.82
2018-02-09T19:21:25.024Z,13.45
2018-02-09T19:23:53.339Z,16.03
2018-02-09T19:26:21.623Z,16.70
2018-02-09T19:28:49.996Z,15.12
2018-02-09T19:31:18.312Z,15.22
2018-02-09T19:33:46.768Z,13.70
2018-02-09T19:36:15.059Z,14.83
2018-02-09T19:38:43.363Z,16.58
2018-02-09T19:41:11.656Z,16.13
2018-02-09T19:43:40.044Z,14.07
2018-02-09T19:46:08.333Z,14.37
2018-02-09T19:48:36.641Z,14.53
2018-02-09T19:51:04.924Z,16.42
2018-02-09T19:53:32.468Z,15.98
2018-02-09T19:56:00.756Z,16.10
2018-02-09T19:58:29.060Z,18.25
2018-02-09T20:00:57.344Z,18.03
2018-02-09T20:03:25.699Z,16.62
2018-02-09T20:05:53.993Z,15.97
2018-02-09T20:08:22.304Z,22.97
2018-02-09T20:10:50.591Z,18.72
2018-02-09T20:13:18.920Z,23.03
2018-02-09T20:15:47.216Z,16.53
2018-02-09T20:18:15.527Z,19.38
2018-02-09T20:20:43.811Z,21.62
2018-02-09T20:23:12.172Z,23.95
2018-02-09T20:25:40.428Z,27.87
2018-02-09T20:28:08.759Z,17.37
2018-02-09T20:30:37.052Z,16.15
2018-02-09T20:33:05.371Z,18.32
2018-02-09T20:35:33.659Z,27.70
2018-02-09T20:38:01.949Z,16.57
2018-02-09T20:40:30.255Z,23.68
2018-02-09T20:42:58.575Z,21.27
2018-02-09T20:45:26.889Z,19.50
2018-02-09T20:47:55.189Z,19.80
2018-02-09T20:50:23.502Z,68.13
2018-02-09T20:52:51.800Z,32.88
2018-02-09T20:55:20.108Z,46.37
2018-02-09T20:57:48.396Z,19.72
2018-02-09T21:00:16.704Z,17.73
2018-02-09T21:02:44.992Z,26.15
2018-02-09T21:05:13.324Z,27.35
2018-02-09T21:07:41.629Z,27.83
2018-02-09T21:10:09.970Z,36.47
2018-02-09T21:12:38.283Z,16.60
2018-02-09T21:15:06.645Z,18.52
2018-02-09T21:17:34.935Z,31.78
2018-02-09T21:20:03.248Z,25.58
2018-02-09T21:22:31.555Z,20.55
2018-02-09T21:24:59.100Z,18.65
2018-02-09T21:27:27.388Z,22.97
2018-02-09T21:29:55.695Z,17.05
2018-02-09T21:32:23.985Z,27.65
2018-02-09T21:34:52.293Z,19.20
2018-02-09T21:37:20.598Z,21.38
2018-02-09T21:39:48.908Z,27.38
2018-02-09T21:42:17.201Z,17.73
2018-02-09T21:44:45.512Z,27.15
2018-02-09T21:47:13.797Z,26.48
2018-02-09T21:49:42.107Z,23.58
2018-02-09T21:52:10.397Z,18.60
2018-02-09T21:54:38.707Z,24.08
2018-02-09T21:57:07.000Z,19.25
2018-02-09T21:59:35.307Z,18.37
2018-02-09T22:02:03.592Z,17.57
2018-02-09T22:04:31.132Z,17.70
2018-02-09T22:06:59.425Z,29.35
2018-02-09T22:09:27.736Z,15.58
2018-02-09T22:11:56.020Z,19.40
2018-02-09T22:14:24.337Z,16.43
2018-02-09T22:16:52.633Z,14.72
2018-02-09T22:19:20.920Z,24.87
2018-02-09T22:21:49.232Z,14.45
2018-02-09T22:24:17.519Z,14.50
2018-02-09T22:26:45.832Z,14.37
2018-02-09T22:29:14.125Z,14.03
2018-02-09T22:31:42.440Z,15.28
2018-02-09T22:34:10.727Z,13.00
2018-02-09T22:36:39.040Z,15.42
2018-02-09T22:39:07.328Z,13.68
2018-02-09T22:41:35.640Z,14.32
2018-02-09T22:44:03.933Z,14.75
2018-02-09T22:46:32.245Z,13.95
2018-02-09T22:49:00.531Z,14.30
2018-02-09T22:51:28.080Z,13.05
2018-02-09T22:53:56.372Z,22.72
2018-02-09T22:56:24.679Z,15.90
2018-02-09T22:58:52.968Z,15.65
2018-02-09T23:01:21.280Z,18.97
2018-02-09T23:03:49.567Z,14.82
2018-02-09T23:06:17.875Z,14.93
2018-02-09T23:08:46.167Z,15.27
2018-02-09T23:11:14.476Z,13.78
2018-02-09T23:13:42.776Z,12.80
2018-02-09T23:16:11.088Z,14.90
2018-02-09T23:18:39.372Z,14.18
2018-02-09T23:21:07.679Z,14.55
2018-02-09T23:23:35.199Z,13.12
2018-02-09T23:26:03.511Z,13.75
2018-02-09T23:28:31.800Z,14.65
2018-02-09T23:31:00.108Z,14.27
2018-02-09T23:33:28.391Z,15.10
2018-02-09T23:35:56.699Z,14.92
2018-02-09T23:38:25.717Z,13.35
2018-02-09T23:40:54.027Z,12.83
2018-02-09T23:43:22.316Z,14.28
2018-02-09T23:45:50.619Z,14.35
2018-02-09T23:48:18.903Z,15.23
2018-02-09T23:50:47.215Z,13.42
2018-02-09T23:53:15.503Z,14.15
2018-02-09T23:55:43.807Z,14.38
2018-02-09T23:58:12.091Z,14.53
